sensor_id;sensor_type;location;lat;lon;timestamp;P1;durP1;ratioP1;P2;durP2;ratioP2
19664;SDS011;9980;51.020;7.772;2023-02-15T00:00:13;17.40;;;13.47;;
19664;SDS011;9980;51.020;7.772;2023-02-15T00:02:40;16.70;;;12.83;;
19664;SDS011;9980;51.020;7.772;2023-02-15T00:05:08;14.33;;;11.13;;
19664;SDS011;9980;51.020;7.772;2023-02-15T00:07:35;18.87;;;14.13;;
19664;SDS011;9980;51.020;7.772;2023-02-15T00:10:02;18.33;;;13.13;;
19664;SDS011;9980;51.020;7.772;2023-02-15T00:12:31;22.10;;;14.83;;
19664;SDS011;9980;51.020;7.772;2023-02-15T00:14:58;19.40;;;13.83;;
19664;SDS011;9980;51.020;7.772;2023-02-15T00:17:27;14.17;;;11.27;;
19664;SDS011;9980;51.020;7.772;2023-02-15T00:19:54;16.73;;;12.80;;
19664;SDS011;9980;51.020;7.772;2023-02-15T00:22:21;21.80;;;15.27;;
19664;SDS011;9980;51.020;7.772;2023-02-15T00:24:48;16.23;;;11.30;;
19664;SDS011;9980;51.020;7.772;2023-02-15T00:27:16;18.40;;;13.77;;
19664;SDS011;9980;51.020;7.772;2023-02-15T00:29:46;15.17;;;12.83;;
19664;SDS011;9980;51.020;7.772;2023-02-15T00:32:13;21.27;;;15.07;;
19664;SDS011;9980;51.020;7.772;2023-02-15T00:34:43;19.33;;;13.20;;
19664;SDS011;9980;51.020;7.772;2023-02-15T00:37:12;18.03;;;13.90;;
19664;SDS011;9980;51.020;7.772;2023-02-15T00:39:46;16.73;;;12.50;;
19664;SDS011;9980;51.020;7.772;2023-02-15T00:42:13;19.07;;;13.50;;
19664;SDS011;9980;51.020;7.772;2023-02-15T00:44:40;17.80;;;12.73;;
19664;SDS011;9980;51.020;7.772;2023-02-15T00:47:07;18.33;;;13.03;;
19664;SDS011;9980;51.020;7.772;2023-02-15T00:49:33;16.07;;;12.77;;
19664;SDS011;9980;51.020;7.772;2023-02-15T00:52:00;12.30;;;11.00;;
19664;SDS011;9980;51.020;7.772;2023-02-15T00:54:28;18.90;;;14.30;;
19664;SDS011;9980;51.020;7.772;2023-02-15T00:56:55;18.73;;;14.83;;
19664;SDS011;9980;51.020;7.772;2023-02-15T00:59:23;14.80;;;12.37;;
19664;SDS011;9980;51.020;7.772;2023-02-15T01:01:50;18.00;;;13.37;;
19664;SDS011;9980;51.020;7.772;2023-02-15T01:04:18;17.60;;;13.60;;
19664;SDS011;9980;51.020;7.772;2023-02-15T01:06:45;19.80;;;14.40;;
19664;SDS011;9980;51.020;7.772;2023-02-15T01:09:13;19.70;;;13.73;;
19664;SDS011;9980;51.020;7.772;2023-02-15T01:11:40;15.90;;;11.93;;
19664;SDS011;9980;51.020;7.772;2023-02-15T01:14:09;14.40;;;12.37;;
19664;SDS011;9980;51.020;7.772;2023-02-15T01:16:37;17.87;;;13.17;;
19664;SDS011;9980;51.020;7.772;2023-02-15T01:19:04;18.93;;;14.83;;
19664;SDS011;9980;51.020;7.772;2023-02-15T01:21:33;16.90;;;13.10;;
19664;SDS011;9980;51.020;7.772;2023-02-15T01:24:01;20.70;;;14.77;;
19664;SDS011;9980;51.020;7.772;2023-02-15T01:26:29;19.67;;;15.30;;
19664;SDS011;9980;51.020;7.772;2023-02-15T01:28:57;18.77;;;15.13;;
19664;SDS011;9980;51.020;7.772;2023-02-15T01:31:25;18.63;;;14.23;;
19664;SDS011;9980;51.020;7.772;2023-02-15T01:33:55;16.27;;;13.37;;
19664;SDS011;9980;51.020;7.772;2023-02-15T01:36:22;18.17;;;13.80;;
19664;SDS011;9980;51.020;7.772;2023-02-15T01:38:50;15.67;;;12.53;;
19664;SDS011;9980;51.020;7.772;2023-02-15T01:41:18;19.57;;;14.80;;
19664;SDS011;9980;51.020;7.772;2023-02-15T01:43:50;17.57;;;13.20;;
19664;SDS011;9980;51.020;7.772;2023-02-15T01:46:33;21.40;;;15.37;;
19664;SDS011;9980;51.020;7.772;2023-02-15T01:49:14;16.73;;;12.77;;
19664;SDS011;9980;51.020;7.772;2023-02-15T01:51:46;16.90;;;12.53;;
19664;SDS011;9980;51.020;7.772;2023-02-15T01:54:22;14.20;;;12.03;;
19664;SDS011;9980;51.020;7.772;2023-02-15T01:56:58;17.87;;;14.07;;
19664;SDS011;9980;51.020;7.772;2023-02-15T01:59:31;21.07;;;14.23;;
19664;SDS011;9980;51.020;7.772;2023-02-15T02:02:02;19.20;;;14.30;;
19664;SDS011;9980;51.020;7.772;2023-02-15T02:04:35;14.93;;;12.40;;
19664;SDS011;9980;51.020;7.772;2023-02-15T02:07:18;17.07;;;13.27;;
19664;SDS011;9980;51.020;7.772;2023-02-15T02:09:49;17.10;;;13.37;;
19664;SDS011;9980;51.020;7.772;2023-02-15T02:12:16;19.13;;;14.53;;
19664;SDS011;9980;51.020;7.772;2023-02-15T02:14:47;17.53;;;14.30;;
19664;SDS011;9980;51.020;7.772;2023-02-15T02:17:17;19.27;;;14.83;;
19664;SDS011;9980;51.020;7.772;2023-02-15T02:20:30;17.57;;;13.70;;
19664;SDS011;9980;51.020;7.772;2023-02-15T02:25:50;16.80;;;13.23;;
19664;SDS011;9980;51.020;7.772;2023-02-15T02:31:59;16.97;;;13.30;;
19664;SDS011;9980;51.020;7.772;2023-02-15T02:35:04;16.40;;;13.70;;
19664;SDS011;9980;51.020;7.772;2023-02-15T02:40:47;18.33;;;13.63;;
19664;SDS011;9980;51.020;7.772;2023-02-15T02:44:02;17.20;;;14.03;;
19664;SDS011;9980;51.020;7.772;2023-02-15T02:47:06;18.20;;;14.33;;
19664;SDS011;9980;51.020;7.772;2023-02-15T02:49:44;16.63;;;13.20;;
19664;SDS011;9980;51.020;7.772;2023-02-15T02:55:13;18.00;;;13.77;;
19664;SDS011;9980;51.020;7.772;2023-02-15T03:00:47;21.63;;;14.40;;
19664;SDS011;9980;51.020;7.772;2023-02-15T03:06:31;18.03;;;14.47;;
19664;SDS011;9980;51.020;7.772;2023-02-15T03:09:03;18.03;;;14.67;;
19664;SDS011;9980;51.020;7.772;2023-02-15T03:11:48;23.83;;;16.37;;
19664;SDS011;9980;51.020;7.772;2023-02-15T03:14:16;26.47;;;17.17;;
19664;SDS011;9980;51.020;7.772;2023-02-15T03:16:46;30.17;;;17.67;;
19664;SDS011;9980;51.020;7.772;2023-02-15T03:19:19;23.83;;;15.83;;
19664;SDS011;9980;51.020;7.772;2023-02-15T03:21:56;24.40;;;16.70;;
19664;SDS011;9980;51.020;7.772;2023-02-15T03:24:53;20.27;;;14.73;;
19664;SDS011;9980;51.020;7.772;2023-02-15T03:27:47;19.93;;;15.33;;
19664;SDS011;9980;51.020;7.772;2023-02-15T03:30:21;21.00;;;15.20;;
19664;SDS011;9980;51.020;7.772;2023-02-15T03:32:53;24.53;;;15.70;;
19664;SDS011;9980;51.020;7.772;2023-02-15T03:35:24;24.33;;;17.30;;
19664;SDS011;9980;51.020;7.772;2023-02-15T03:38:00;23.23;;;15.80;;
19664;SDS011;9980;51.020;7.772;2023-02-15T03:40:40;20.27;;;15.87;;
19664;SDS011;9980;51.020;7.772;2023-02-15T03:43:36;20.90;;;14.93;;
19664;SDS011;9980;51.020;7.772;2023-02-15T03:46:27;20.63;;;15.47;;
19664;SDS011;9980;51.020;7.772;2023-02-15T03:49:10;21.10;;;16.33;;
19664;SDS011;9980;51.020;7.772;2023-02-15T03:51:50;17.57;;;13.33;;
19664;SDS011;9980;51.020;7.772;2023-02-15T03:54:26;19.33;;;15.53;;
19664;SDS011;9980;51.020;7.772;2023-02-15T03:57:10;20.23;;;15.20;;
19664;SDS011;9980;51.020;7.772;2023-02-15T04:00:21;22.57;;;15.57;;
19664;SDS011;9980;51.020;7.772;2023-02-15T04:03:44;20.77;;;15.27;;
19664;SDS011;9980;51.020;7.772;2023-02-15T04:06:06;18.67;;;14.13;;
19664;SDS011;9980;51.020;7.772;2023-02-15T04:08:32;17.93;;;13.83;;
19664;SDS011;9980;51.020;7.772;2023-02-15T04:11:18;19.07;;;14.90;;
19664;SDS011;9980;51.020;7.772;2023-02-15T04:13:45;16.20;;;13.90;;
19664;SDS011;9980;51.020;7.772;2023-02-15T04:16:12;21.77;;;15.53;;
19664;SDS011;9980;51.020;7.772;2023-02-15T04:18:40;21.10;;;14.27;;
19664;SDS011;9980;51.020;7.772;2023-02-15T04:21:29;20.87;;;15.40;;
19664;SDS011;9980;51.020;7.772;2023-02-15T04:24:15;15.87;;;12.73;;
19664;SDS011;9980;51.020;7.772;2023-02-15T04:27:01;18.30;;;13.33;;
19664;SDS011;9980;51.020;7.772;2023-02-15T04:29:31;17.97;;;13.70;;
19664;SDS011;9980;51.020;7.772;2023-02-15T04:31:59;19.93;;;14.63;;
19664;SDS011;9980;51.020;7.772;2023-02-15T04:34:27;20.43;;;15.00;;
19664;SDS011;9980;51.020;7.772;2023-02-15T04:36:55;15.07;;;13.37;;
19664;SDS011;9980;51.020;7.772;2023-02-15T04:39:22;17.47;;;13.73;;
19664;SDS011;9980;51.020;7.772;2023-02-15T04:41:49;19.13;;;14.57;;
19664;SDS011;9980;51.020;7.772;2023-02-15T04:44:16;15.67;;;13.07;;
19664;SDS011;9980;51.020;7.772;2023-02-15T04:46:43;18.77;;;14.97;;
19664;SDS011;9980;51.020;7.772;2023-02-15T04:49:10;20.33;;;14.10;;
19664;SDS011;9980;51.020;7.772;2023-02-15T04:51:37;16.97;;;12.77;;
19664;SDS011;9980;51.020;7.772;2023-02-15T04:54:04;21.00;;;14.80;;
19664;SDS011;9980;51.020;7.772;2023-02-15T04:56:31;16.47;;;13.27;;
19664;SDS011;9980;51.020;7.772;2023-02-15T04:59:00;21.87;;;13.40;;
19664;SDS011;9980;51.020;7.772;2023-02-15T05:01:27;19.50;;;13.60;;
19664;SDS011;9980;51.020;7.772;2023-02-15T05:03:54;19.87;;;14.70;;
19664;SDS011;9980;51.020;7.772;2023-02-15T05:06:21;18.87;;;14.10;;
19664;SDS011;9980;51.020;7.772;2023-02-15T05:08:48;18.00;;;14.30;;
19664;SDS011;9980;51.020;7.772;2023-02-15T05:11:15;22.13;;;14.53;;
19664;SDS011;9980;51.020;7.772;2023-02-15T05:13:42;19.33;;;14.50;;
19664;SDS011;9980;51.020;7.772;2023-02-15T05:16:09;20.80;;;14.03;;
19664;SDS011;9980;51.020;7.772;2023-02-15T05:18:36;19.63;;;14.53;;
19664;SDS011;9980;51.020;7.772;2023-02-15T05:21:03;22.07;;;15.03;;
19664;SDS011;9980;51.020;7.772;2023-02-15T05:23:30;18.33;;;14.03;;
19664;SDS011;9980;51.020;7.772;2023-02-15T05:25:57;19.80;;;14.47;;
19664;SDS011;9980;51.020;7.772;2023-02-15T05:28:43;21.53;;;13.63;;
19664;SDS011;9980;51.020;7.772;2023-02-15T05:31:11;17.03;;;13.50;;
19664;SDS011;9980;51.020;7.772;2023-02-15T05:33:45;17.47;;;13.60;;
19664;SDS011;9980;51.020;7.772;2023-02-15T05:36:12;19.73;;;13.60;;
19664;SDS011;9980;51.020;7.772;2023-02-15T05:38:40;17.43;;;12.83;;
19664;SDS011;9980;51.020;7.772;2023-02-15T05:41:07;19.30;;;14.27;;
19664;SDS011;9980;51.020;7.772;2023-02-15T05:43:37;23.90;;;13.73;;
19664;SDS011;9980;51.020;7.772;2023-02-15T05:46:05;19.60;;;15.30;;
19664;SDS011;9980;51.020;7.772;2023-02-15T05:48:34;21.33;;;14.33;;
19664;SDS011;9980;51.020;7.772;2023-02-15T05:53:36;19.23;;;14.90;;
19664;SDS011;9980;51.020;7.772;2023-02-15T05:56:05;18.80;;;14.67;;
19664;SDS011;9980;51.020;7.772;2023-02-15T05:58:36;20.20;;;14.33;;
19664;SDS011;9980;51.020;7.772;2023-02-15T06:01:09;18.97;;;13.90;;
19664;SDS011;9980;51.020;7.772;2023-02-15T06:03:41;21.03;;;15.00;;
19664;SDS011;9980;51.020;7.772;2023-02-15T06:06:09;20.07;;;14.80;;
19664;SDS011;9980;51.020;7.772;2023-02-15T06:08:37;16.63;;;13.37;;
19664;SDS011;9980;51.020;7.772;2023-02-15T06:11:04;16.67;;;13.60;;
19664;SDS011;9980;51.020;7.772;2023-02-15T06:13:32;19.03;;;14.17;;
19664;SDS011;9980;51.020;7.772;2023-02-15T06:16:04;16.17;;;12.60;;
19664;SDS011;9980;51.020;7.772;2023-02-15T06:18:32;21.17;;;13.47;;
19664;SDS011;9980;51.020;7.772;2023-02-15T06:20:59;19.67;;;15.10;;
19664;SDS011;9980;51.020;7.772;2023-02-15T06:23:26;24.63;;;13.87;;
19664;SDS011;9980;51.020;7.772;2023-02-15T06:25:53;18.17;;;13.37;;
19664;SDS011;9980;51.020;7.772;2023-02-15T06:28:20;20.77;;;15.53;;
19664;SDS011;9980;51.020;7.772;2023-02-15T06:30:48;24.37;;;16.40;;
19664;SDS011;9980;51.020;7.772;2023-02-15T06:33:15;23.53;;;16.43;;
19664;SDS011;9980;51.020;7.772;2023-02-15T06:35:42;22.37;;;15.93;;
19664;SDS011;9980;51.020;7.772;2023-02-15T06:38:09;18.53;;;14.73;;
19664;SDS011;9980;51.020;7.772;2023-02-15T06:40:36;26.57;;;16.00;;
19664;SDS011;9980;51.020;7.772;2023-02-15T06:43:03;20.47;;;14.70;;
19664;SDS011;9980;51.020;7.772;2023-02-15T06:45:30;18.87;;;14.57;;
19664;SDS011;9980;51.020;7.772;2023-02-15T06:47:57;20.20;;;13.87;;
19664;SDS011;9980;51.020;7.772;2023-02-15T06:50:24;20.23;;;14.43;;
19664;SDS011;9980;51.020;7.772;2023-02-15T06:52:55;19.93;;;14.30;;
19664;SDS011;9980;51.020;7.772;2023-02-15T06:55:25;19.13;;;13.63;;
19664;SDS011;9980;51.020;7.772;2023-02-15T06:57:52;18.27;;;13.53;;
19664;SDS011;9980;51.020;7.772;2023-02-15T07:00:19;18.87;;;14.07;;
19664;SDS011;9980;51.020;7.772;2023-02-15T07:02:55;18.27;;;13.37;;
19664;SDS011;9980;51.020;7.772;2023-02-15T07:05:24;18.73;;;14.17;;
19664;SDS011;9980;51.020;7.772;2023-02-15T07:07:57;20.47;;;12.73;;
19664;SDS011;9980;51.020;7.772;2023-02-15T07:10:26;16.17;;;13.03;;
19664;SDS011;9980;51.020;7.772;2023-02-15T07:12:54;16.77;;;13.27;;
19664;SDS011;9980;51.020;7.772;2023-02-15T07:15:21;18.73;;;13.03;;
19664;SDS011;9980;51.020;7.772;2023-02-15T07:17:48;19.43;;;14.50;;
19664;SDS011;9980;51.020;7.772;2023-02-15T07:20:17;15.73;;;13.57;;
19664;SDS011;9980;51.020;7.772;2023-02-15T07:22:47;18.83;;;13.87;;
19664;SDS011;9980;51.020;7.772;2023-02-15T07:25:14;14.57;;;12.57;;
19664;SDS011;9980;51.020;7.772;2023-02-15T07:27:42;16.93;;;12.40;;
19664;SDS011;9980;51.020;7.772;2023-02-15T07:30:12;18.00;;;12.67;;
19664;SDS011;9980;51.020;7.772;2023-02-15T07:32:42;16.57;;;13.57;;
19664;SDS011;9980;51.020;7.772;2023-02-15T07:35:31;23.20;;;14.73;;
19664;SDS011;9980;51.020;7.772;2023-02-15T07:37:58;19.93;;;14.60;;
19664;SDS011;9980;51.020;7.772;2023-02-15T07:40:26;24.00;;;16.40;;
19664;SDS011;9980;51.020;7.772;2023-02-15T07:42:53;19.67;;;14.77;;
19664;SDS011;9980;51.020;7.772;2023-02-15T07:45:25;17.43;;;13.33;;
19664;SDS011;9980;51.020;7.772;2023-02-15T07:47:52;18.53;;;13.30;;
19664;SDS011;9980;51.020;7.772;2023-02-15T07:50:19;19.43;;;13.87;;
19664;SDS011;9980;51.020;7.772;2023-02-15T07:52:46;22.20;;;16.73;;
19664;SDS011;9980;51.020;7.772;2023-02-15T07:55:13;21.80;;;16.73;;
19664;SDS011;9980;51.020;7.772;2023-02-15T07:57:41;20.07;;;15.40;;
19664;SDS011;9980;51.020;7.772;2023-02-15T08:00:11;22.03;;;17.07;;
19664;SDS011;9980;51.020;7.772;2023-02-15T08:02:50;27.40;;;17.30;;
19664;SDS011;9980;51.020;7.772;2023-02-15T08:05:39;25.20;;;16.90;;
19664;SDS011;9980;51.020;7.772;2023-02-15T08:08:08;25.30;;;17.07;;
19664;SDS011;9980;51.020;7.772;2023-02-15T08:11:02;26.50;;;16.27;;
19664;SDS011;9980;51.020;7.772;2023-02-15T08:14:01;27.60;;;16.87;;
19664;SDS011;9980;51.020;7.772;2023-02-15T08:16:45;21.00;;;17.43;;
19664;SDS011;9980;51.020;7.772;2023-02-15T08:19:26;20.67;;;15.03;;
19664;SDS011;9980;51.020;7.772;2023-02-15T08:21:57;19.10;;;14.27;;
19664;SDS011;9980;51.020;7.772;2023-02-15T08:24:27;22.07;;;14.30;;
19664;SDS011;9980;51.020;7.772;2023-02-15T08:27:03;20.00;;;13.90;;
19664;SDS011;9980;51.020;7.772;2023-02-15T08:29:35;18.63;;;13.57;;
19664;SDS011;9980;51.020;7.772;2023-02-15T08:32:07;22.33;;;15.77;;
19664;SDS011;9980;51.020;7.772;2023-02-15T08:34:38;16.30;;;13.67;;
19664;SDS011;9980;51.020;7.772;2023-02-15T08:37:07;19.77;;;13.70;;
19664;SDS011;9980;51.020;7.772;2023-02-15T08:39:35;18.60;;;14.13;;
19664;SDS011;9980;51.020;7.772;2023-02-15T08:42:03;20.40;;;15.10;;
19664;SDS011;9980;51.020;7.772;2023-02-15T08:44:32;20.33;;;14.37;;
19664;SDS011;9980;51.020;7.772;2023-02-15T08:46:59;20.20;;;14.50;;
19664;SDS011;9980;51.020;7.772;2023-02-15T08:49:30;18.77;;;14.57;;
19664;SDS011;9980;51.020;7.772;2023-02-15T08:51:58;21.10;;;15.13;;
19664;SDS011;9980;51.020;7.772;2023-02-15T08:54:25;17.40;;;14.33;;
19664;SDS011;9980;51.020;7.772;2023-02-15T08:56:52;20.87;;;15.03;;
19664;SDS011;9980;51.020;7.772;2023-02-15T08:59:21;21.90;;;15.37;;
19664;SDS011;9980;51.020;7.772;2023-02-15T09:01:50;18.97;;;15.13;;
19664;SDS011;9980;51.020;7.772;2023-02-15T09:04:18;22.60;;;15.90;;
19664;SDS011;9980;51.020;7.772;2023-02-15T09:06:49;22.90;;;16.10;;
19664;SDS011;9980;51.020;7.772;2023-02-15T09:09:16;23.17;;;16.10;;
19664;SDS011;9980;51.020;7.772;2023-02-15T09:11:46;24.27;;;17.00;;
19664;SDS011;9980;51.020;7.772;2023-02-15T09:14:23;28.33;;;17.70;;
19664;SDS011;9980;51.020;7.772;2023-02-15T09:16:54;20.20;;;16.13;;
19664;SDS011;9980;51.020;7.772;2023-02-15T09:19:24;23.63;;;16.77;;
19664;SDS011;9980;51.020;7.772;2023-02-15T09:21:51;21.20;;;15.20;;
19664;SDS011;9980;51.020;7.772;2023-02-15T09:24:19;19.73;;;14.80;;
19664;SDS011;9980;51.020;7.772;2023-02-15T09:26:48;16.00;;;13.13;;
19664;SDS011;9980;51.020;7.772;2023-02-15T09:29:16;20.43;;;14.53;;
19664;SDS011;9980;51.020;7.772;2023-02-15T09:31:46;23.20;;;16.23;;
19664;SDS011;9980;51.020;7.772;2023-02-15T09:34:21;21.67;;;13.20;;
19664;SDS011;9980;51.020;7.772;2023-02-15T09:36:49;17.57;;;13.00;;
19664;SDS011;9980;51.020;7.772;2023-02-15T09:39:22;15.90;;;13.10;;
19664;SDS011;9980;51.020;7.772;2023-02-15T09:52:55;15.67;;;12.47;;
19664;SDS011;9980;51.020;7.772;2023-02-15T09:56:06;19.30;;;14.07;;
19664;SDS011;9980;51.020;7.772;2023-02-15T10:01:39;15.60;;;12.03;;
19664;SDS011;9980;51.020;7.772;2023-02-15T10:07:59;16.47;;;11.77;;
19664;SDS011;9980;51.020;7.772;2023-02-15T10:25:40;17.47;;;12.23;;
19664;SDS011;9980;51.020;7.772;2023-02-15T10:28:25;14.83;;;11.00;;
19664;SDS011;9980;51.020;7.772;2023-02-15T10:31:24;13.30;;;10.27;;
19664;SDS011;9980;51.020;7.772;2023-02-15T10:33:55;14.07;;;11.37;;
19664;SDS011;9980;51.020;7.772;2023-02-15T10:42:49;13.87;;;10.80;;
19664;SDS011;9980;51.020;7.772;2023-02-15T10:51:42;12.27;;;10.40;;
19664;SDS011;9980;51.020;7.772;2023-02-15T10:54:43;14.20;;;9.93;;
19664;SDS011;9980;51.020;7.772;2023-02-15T11:03:05;11.03;;;9.43;;
19664;SDS011;9980;51.020;7.772;2023-02-15T11:06:11;12.13;;;9.17;;
19664;SDS011;9980;51.020;7.772;2023-02-15T11:08:47;11.33;;;8.87;;
19664;SDS011;9980;51.020;7.772;2023-02-15T11:11:25;12.20;;;9.60;;
19664;SDS011;9980;51.020;7.772;2023-02-15T11:14:02;14.07;;;9.33;;
19664;SDS011;9980;51.020;7.772;2023-02-15T11:16:41;10.73;;;9.10;;
19664;SDS011;9980;51.020;7.772;2023-02-15T11:20:02;12.33;;;9.90;;
19664;SDS011;9980;51.020;7.772;2023-02-15T11:22:29;11.30;;;9.43;;
19664;SDS011;9980;51.020;7.772;2023-02-15T11:24:59;11.63;;;9.63;;
19664;SDS011;9980;51.020;7.772;2023-02-15T11:27:30;12.57;;;9.40;;
19664;SDS011;9980;51.020;7.772;2023-02-15T11:30:05;12.23;;;8.57;;
19664;SDS011;9980;51.020;7.772;2023-02-15T11:32:39;11.70;;;9.23;;
19664;SDS011;9980;51.020;7.772;2023-02-15T11:40:40;11.60;;;9.00;;
19664;SDS011;9980;51.020;7.772;2023-02-15T11:46:22;10.73;;;8.83;;
19664;SDS011;9980;51.020;7.772;2023-02-15T11:48:50;10.03;;;8.07;;
19664;SDS011;9980;51.020;7.772;2023-02-15T11:51:17;13.60;;;8.27;;
19664;SDS011;9980;51.020;7.772;2023-02-15T11:53:49;10.93;;;9.03;;
19664;SDS011;9980;51.020;7.772;2023-02-15T11:56:19;9.10;;;7.80;;
19664;SDS011;9980;51.020;7.772;2023-02-15T11:58:56;10.27;;;8.27;;
19664;SDS011;9980;51.020;7.772;2023-02-15T12:01:34;10.00;;;8.53;;
19664;SDS011;9980;51.020;7.772;2023-02-15T12:04:10;9.83;;;8.07;;
19664;SDS011;9980;51.020;7.772;2023-02-15T12:07:14;12.40;;;8.30;;
19664;SDS011;9980;51.020;7.772;2023-02-15T12:10:05;11.43;;;8.97;;
19664;SDS011;9980;51.020;7.772;2023-02-15T12:13:08;9.53;;;8.40;;
19664;SDS011;9980;51.020;7.772;2023-02-15T12:15:42;11.17;;;9.20;;
19664;SDS011;9980;51.020;7.772;2023-02-15T12:21:10;10.43;;;8.40;;
19664;SDS011;9980;51.020;7.772;2023-02-15T12:24:48;13.17;;;8.83;;
19664;SDS011;9980;51.020;7.772;2023-02-15T12:27:02;8.50;;;7.60;;
19664;SDS011;9980;51.020;7.772;2023-02-15T12:29:41;13.37;;;8.87;;
19664;SDS011;9980;51.020;7.772;2023-02-15T12:32:17;13.47;;;8.77;;
19664;SDS011;9980;51.020;7.772;2023-02-15T12:34:51;10.17;;;8.93;;
19664;SDS011;9980;51.020;7.772;2023-02-15T12:37:29;11.37;;;8.83;;
19664;SDS011;9980;51.020;7.772;2023-02-15T12:39:59;11.70;;;8.27;;
19664;SDS011;9980;51.020;7.772;2023-02-15T12:42:28;12.03;;;8.80;;
19664;SDS011;9980;51.020;7.772;2023-02-15T12:45:21;11.90;;;8.57;;
19664;SDS011;9980;51.020;7.772;2023-02-15T12:50:47;11.50;;;8.57;;
19664;SDS011;9980;51.020;7.772;2023-02-15T12:53:30;12.53;;;8.07;;
19664;SDS011;9980;51.020;7.772;2023-02-15T12:56:04;9.90;;;8.17;;
19664;SDS011;9980;51.020;7.772;2023-02-15T12:58:41;10.27;;;8.33;;
19664;SDS011;9980;51.020;7.772;2023-02-15T13:03:35;10.97;;;8.60;;
19664;SDS011;9980;51.020;7.772;2023-02-15T13:06:19;10.73;;;8.40;;
19664;SDS011;9980;51.020;7.772;2023-02-15T13:08:49;9.17;;;7.90;;
19664;SDS011;9980;51.020;7.772;2023-02-15T13:11:20;12.40;;;8.80;;
19664;SDS011;9980;51.020;7.772;2023-02-15T13:13:59;12.63;;;9.17;;
19664;SDS011;9980;51.020;7.772;2023-02-15T13:16:45;12.90;;;9.00;;
19664;SDS011;9980;51.020;7.772;2023-02-15T13:19:26;11.57;;;8.30;;
19664;SDS011;9980;51.020;7.772;2023-02-15T13:22:13;10.97;;;8.57;;
19664;SDS011;9980;51.020;7.772;2023-02-15T13:24:53;11.83;;;7.70;;
19664;SDS011;9980;51.020;7.772;2023-02-15T13:27:46;13.07;;;9.30;;
19664;SDS011;9980;51.020;7.772;2023-02-15T13:30:26;13.37;;;9.60;;
19664;SDS011;9980;51.020;7.772;2023-02-15T13:33:00;12.50;;;8.70;;
19664;SDS011;9980;51.020;7.772;2023-02-15T13:35:36;12.13;;;8.67;;
19664;SDS011;9980;51.020;7.772;2023-02-15T13:42:01;12.50;;;8.93;;
19664;SDS011;9980;51.020;7.772;2023-02-15T13:50:10;10.63;;;8.10;;
19664;SDS011;9980;51.020;7.772;2023-02-15T13:55:44;10.10;;;7.67;;
19664;SDS011;9980;51.020;7.772;2023-02-15T14:01:34;11.33;;;8.97;;
19664;SDS011;9980;51.020;7.772;2023-02-15T14:19:51;11.17;;;8.73;;
19664;SDS011;9980;51.020;7.772;2023-02-15T14:22:28;9.73;;;8.03;;
19664;SDS011;9980;51.020;7.772;2023-02-15T14:25:19;12.43;;;8.60;;
19664;SDS011;9980;51.020;7.772;2023-02-15T14:30:49;10.33;;;7.67;;
19664;SDS011;9980;51.020;7.772;2023-02-15T14:33:29;10.07;;;8.23;;
19664;SDS011;9980;51.020;7.772;2023-02-15T14:36:05;10.77;;;8.37;;
19664;SDS011;9980;51.020;7.772;2023-02-15T14:42:18;10.47;;;7.87;;
19664;SDS011;9980;51.020;7.772;2023-02-15T14:45:05;11.13;;;8.50;;
19664;SDS011;9980;51.020;7.772;2023-02-15T14:48:39;11.30;;;8.87;;
19664;SDS011;9980;51.020;7.772;2023-02-15T14:50:49;9.57;;;7.77;;
19664;SDS011;9980;51.020;7.772;2023-02-15T15:01:32;12.23;;;9.13;;
19664;SDS011;9980;51.020;7.772;2023-02-15T15:04:05;9.60;;;7.97;;
19664;SDS011;9980;51.020;7.772;2023-02-15T15:06:41;10.90;;;8.03;;
19664;SDS011;9980;51.020;7.772;2023-02-15T15:09:24;10.97;;;8.33;;
19664;SDS011;9980;51.020;7.772;2023-02-15T15:14:48;13.80;;;10.10;;
19664;SDS011;9980;51.020;7.772;2023-02-15T15:20:36;9.70;;;8.37;;
19664;SDS011;9980;51.020;7.772;2023-02-15T15:31:20;10.90;;;8.83;;
19664;SDS011;9980;51.020;7.772;2023-02-15T15:34:21;14.13;;;9.83;;
19664;SDS011;9980;51.020;7.772;2023-02-15T15:49:24;13.70;;;10.07;;
19664;SDS011;9980;51.020;7.772;2023-02-15T15:52:01;13.23;;;10.37;;
19664;SDS011;9980;51.020;7.772;2023-02-15T15:54:39;13.57;;;9.10;;
19664;SDS011;9980;51.020;7.772;2023-02-15T15:59:56;15.47;;;10.40;;
19664;SDS011;9980;51.020;7.772;2023-02-15T16:02:27;16.60;;;11.00;;
19664;SDS011;9980;51.020;7.772;2023-02-15T16:04:54;20.73;;;14.83;;
19664;SDS011;9980;51.020;7.772;2023-02-15T16:07:32;17.33;;;13.07;;
19664;SDS011;9980;51.020;7.772;2023-02-15T16:10:00;33.67;;;23.23;;
19664;SDS011;9980;51.020;7.772;2023-02-15T16:12:34;40.83;;;26.50;;
19664;SDS011;9980;51.020;7.772;2023-02-15T16:15:13;73.37;;;47.07;;
19664;SDS011;9980;51.020;7.772;2023-02-15T16:17:44;52.00;;;32.00;;
19664;SDS011;9980;51.020;7.772;2023-02-15T16:20:17;24.67;;;17.87;;
19664;SDS011;9980;51.020;7.772;2023-02-15T16:23:16;30.57;;;19.43;;
19664;SDS011;9980;51.020;7.772;2023-02-15T16:28:52;22.20;;;15.90;;
19664;SDS011;9980;51.020;7.772;2023-02-15T16:31:21;18.40;;;14.40;;
19664;SDS011;9980;51.020;7.772;2023-02-15T16:33:51;17.53;;;14.70;;
19664;SDS011;9980;51.020;7.772;2023-02-15T16:36:26;20.37;;;13.63;;
19664;SDS011;9980;51.020;7.772;2023-02-15T16:41:34;21.73;;;17.03;;
19664;SDS011;9980;51.020;7.772;2023-02-15T16:44:07;18.77;;;14.73;;
19664;SDS011;9980;51.020;7.772;2023-02-15T16:46:45;18.83;;;14.07;;
19664;SDS011;9980;51.020;7.772;2023-02-15T16:49:18;18.23;;;14.37;;
19664;SDS011;9980;51.020;7.772;2023-02-15T16:51:59;17.50;;;13.80;;
19664;SDS011;9980;51.020;7.772;2023-02-15T16:54:33;21.30;;;15.80;;
19664;SDS011;9980;51.020;7.772;2023-02-15T16:57:01;18.20;;;13.70;;
19664;SDS011;9980;51.020;7.772;2023-02-15T16:59:33;27.53;;;19.10;;
19664;SDS011;9980;51.020;7.772;2023-02-15T17:02:18;23.93;;;17.10;;
19664;SDS011;9980;51.020;7.772;2023-02-15T17:07:38;35.60;;;26.07;;
19664;SDS011;9980;51.020;7.772;2023-02-15T17:13:11;109.97;;;67.10;;
19664;SDS011;9980;51.020;7.772;2023-02-15T17:18:29;54.63;;;38.47;;
19664;SDS011;9980;51.020;7.772;2023-02-15T17:21:12;29.10;;;23.63;;
19664;SDS011;9980;51.020;7.772;2023-02-15T17:23:47;27.30;;;21.87;;
19664;SDS011;9980;51.020;7.772;2023-02-15T17:26:26;22.87;;;20.37;;
19664;SDS011;9980;51.020;7.772;2023-02-15T17:28:59;20.93;;;17.53;;
19664;SDS011;9980;51.020;7.772;2023-02-15T17:31:53;18.87;;;15.60;;
19664;SDS011;9980;51.020;7.772;2023-02-15T17:34:43;19.37;;;14.47;;
19664;SDS011;9980;51.020;7.772;2023-02-15T17:43:00;22.03;;;13.60;;
19664;SDS011;9980;51.020;7.772;2023-02-15T17:45:49;18.43;;;14.53;;
19664;SDS011;9980;51.020;7.772;2023-02-15T17:51:06;16.37;;;13.17;;
19664;SDS011;9980;51.020;7.772;2023-02-15T17:53:39;15.03;;;11.00;;
19664;SDS011;9980;51.020;7.772;2023-02-15T17:56:06;16.67;;;11.60;;
19664;SDS011;9980;51.020;7.772;2023-02-15T17:58:37;13.10;;;11.20;;
19664;SDS011;9980;51.020;7.772;2023-02-15T18:01:06;15.07;;;12.60;;
19664;SDS011;9980;51.020;7.772;2023-02-15T18:04:03;17.63;;;12.40;;
19664;SDS011;9980;51.020;7.772;2023-02-15T18:06:52;23.63;;;16.10;;
19664;SDS011;9980;51.020;7.772;2023-02-15T18:09:38;25.53;;;19.37;;
19664;SDS011;9980;51.020;7.772;2023-02-15T18:12:25;25.30;;;18.17;;
19664;SDS011;9980;51.020;7.772;2023-02-15T18:14:59;19.57;;;15.40;;
19664;SDS011;9980;51.020;7.772;2023-02-15T18:17:33;18.70;;;14.27;;
19664;SDS011;9980;51.020;7.772;2023-02-15T18:22:49;14.37;;;11.63;;
19664;SDS011;9980;51.020;7.772;2023-02-15T18:25:18;15.33;;;11.90;;
19664;SDS011;9980;51.020;7.772;2023-02-15T18:27:49;16.77;;;11.07;;
19664;SDS011;9980;51.020;7.772;2023-02-15T18:30:21;16.30;;;13.60;;